Chalfant Valley, California
Current Conditions -  °F | °C
As of 3:56 PM on Thursday 18 Dec 2014 (Local Time) from KBIH Reporting Station
Clear Clear  
Wind Chill: 47°   Ceiling: Unl
Heat Index: 49°   Visibility: 10mi
Dew Point: 30°   Wind: 5mph
Humidity: 48%   Direction: 160°SSE
Pressure: 30.15"   Gusts: NA
Location:  37.4772°N, 118.401°W
Report Text: KBIH 182356Z AUTO 16004KT 10SM CLR 09/M01 A3015 RMK AO2 SLP201 T00941011 10106 20061 53005
Loading
Personal Weather Stations






























Interactive Weather Map New forecast layout! Learn more

10-Day Weather Forecast

Advertisements
Track Severe Weather on mobile